createdAt,value
2019-03-22T00:01:53.023Z,72.77
2019-03-22T00:04:57.937Z,68.93
2019-03-22T00:08:02.813Z,70.80
2019-03-22T00:11:07.870Z,71.07
2019-03-22T00:14:12.763Z,70.03
2019-03-22T00:17:17.731Z,69.63
2019-03-22T00:20:22.626Z,71.13
2019-03-22T00:23:27.563Z,70.27
2019-03-22T00:26:32.691Z,72.33
2019-03-22T00:29:37.783Z,72.47
2019-03-22T00:32:42.683Z,71.57
2019-03-22T00:35:47.625Z,72.03
2019-03-22T00:38:52.568Z,72.50
2019-03-22T00:41:57.440Z,75.03
2019-03-22T00:45:02.355Z,75.07
2019-03-22T00:48:07.276Z,74.83
2019-03-22T00:51:12.221Z,72.27
2019-03-22T00:54:17.161Z,73.83
2019-03-22T00:57:28.417Z,73.47
2019-03-22T01:00:28.730Z,75.63
2019-03-22T01:03:33.651Z,72.97
2019-03-22T01:06:38.580Z,76.37
2019-03-22T01:10:02.368Z,77.20
2019-03-22T01:13:07.323Z,77.57
2019-03-22T01:16:12.212Z,79.37
2019-03-22T01:19:17.169Z,80.87
2019-03-22T01:22:22.107Z,79.33
2019-03-22T01:25:26.974Z,80.90
2019-03-22T01:28:31.881Z,78.30
2019-03-22T01:31:37.796Z,80.40
2019-03-22T01:34:42.717Z,78.20
2019-03-22T01:37:47.662Z,80.20
2019-03-22T01:40:52.606Z,83.43
2019-03-22T01:43:57.711Z,80.53
2019-03-22T01:47:02.551Z,81.00
2019-03-22T01:50:09.213Z,81.33
2019-03-22T01:53:14.149Z,82.43
2019-03-22T01:56:19.394Z,83.37
2019-03-22T01:59:24.282Z,81.03
2019-03-22T02:02:29.227Z,85.70
2019-03-22T02:05:34.036Z,86.87
2019-03-22T02:08:38.963Z,84.63
2019-03-22T02:11:43.898Z,88.07
2019-03-22T02:14:48.730Z,88.53
2019-03-22T02:17:54.241Z,85.80
2019-03-22T02:20:59.218Z,86.57
2019-03-22T02:24:04.296Z,86.57
2019-03-22T02:27:09.219Z,89.43
2019-03-22T02:30:14.775Z,87.60
2019-03-22T02:33:19.658Z,86.60
2019-03-22T02:36:24.534Z,88.83
2019-03-22T02:39:30.003Z,86.40
2019-03-22T02:42:35.033Z,85.03
2019-03-22T02:45:39.999Z,84.13
2019-03-22T02:48:44.915Z,85.83
2019-03-22T02:51:49.881Z,85.67
2019-03-22T02:54:54.780Z,85.50
2019-03-22T02:57:59.726Z,84.87
2019-03-22T03:01:04.671Z,83.67
2019-03-22T03:04:09.603Z,84.20
2019-03-22T03:07:14.507Z,81.70
2019-03-22T03:10:19.431Z,80.27
2019-03-22T03:13:24.389Z,82.83
2019-03-22T03:16:29.332Z,83.10
2019-03-22T03:19:34.241Z,82.87
2019-03-22T03:22:39.263Z,81.97
2019-03-22T03:25:44.157Z,81.27
2019-03-22T03:28:49.062Z,78.57
2019-03-22T03:31:54.002Z,81.27
2019-03-22T03:34:58.915Z,79.17
2019-03-22T03:38:03.806Z,79.53
2019-03-22T03:41:08.840Z,78.23
2019-03-22T03:44:13.795Z,75.90
2019-03-22T03:47:18.746Z,79.53
2019-03-22T03:50:23.665Z,75.93
2019-03-22T03:53:28.682Z,76.23
2019-03-22T03:56:33.551Z,76.20
2019-03-22T03:59:38.411Z,74.40
2019-03-22T04:02:43.301Z,74.43
2019-03-22T04:05:48.244Z,71.93
2019-03-22T04:08:53.191Z,73.47
2019-03-22T04:11:58.128Z,69.70
2019-03-22T04:15:03.072Z,68.50
2019-03-22T04:18:08.020Z,69.40
2019-03-22T04:21:12.909Z,69.97
2019-03-22T04:24:17.851Z,68.13
2019-03-22T04:27:22.733Z,67.13
2019-03-22T04:30:27.658Z,66.13
2019-03-22T04:33:32.491Z,65.03
2019-03-22T04:36:37.340Z,65.27
2019-03-22T04:39:42.226Z,67.33
2019-03-22T04:42:47.147Z,62.00
2019-03-22T04:45:53.162Z,62.70
2019-03-22T04:48:59.202Z,64.53
2019-03-22T04:52:04.691Z,64.53
2019-03-22T04:55:10.036Z,64.30
2019-03-22T04:58:17.520Z,62.73
2019-03-22T05:01:24.085Z,65.03
2019-03-22T05:04:29.678Z,66.87
2019-03-22T05:07:35.384Z,63.97
2019-03-22T05:10:40.488Z,63.20
2019-03-22T05:13:48.078Z,66.30
2019-03-22T05:16:55.185Z,65.60
2019-03-22T05:20:00.730Z,69.50
2019-03-22T05:23:06.867Z,66.70
2019-03-22T05:26:14.900Z,69.50
2019-03-22T05:29:30.120Z,65.33
2019-03-22T05:32:28.197Z,66.10
2019-03-22T05:35:33.128Z,70.60
2019-03-22T05:38:38.062Z,68.10
2019-03-22T05:41:42.983Z,69.43
2019-03-22T05:44:47.932Z,69.50
2019-03-22T05:47:52.836Z,67.53
2019-03-22T05:50:57.808Z,67.33
2019-03-22T05:54:03.060Z,67.37
2019-03-22T05:57:13.309Z,69.57
2019-03-22T06:00:16.497Z,68.83
2019-03-22T06:03:21.407Z,68.80
2019-03-22T06:06:26.304Z,66.23
2019-03-22T06:09:31.263Z,68.20
2019-03-22T06:12:36.183Z,67.20
2019-03-22T06:15:41.197Z,69.80
2019-03-22T06:18:46.459Z,67.00
2019-03-22T06:21:51.315Z,67.33
2019-03-22T06:24:56.531Z,65.77
2019-03-22T06:28:01.475Z,65.60
2019-03-22T06:31:06.376Z,69.97
2019-03-22T06:34:11.315Z,68.50
2019-03-22T06:37:16.256Z,70.17
2019-03-22T06:40:21.237Z,68.53
2019-03-22T06:43:26.132Z,67.20
2019-03-22T06:46:31.075Z,68.13
2019-03-22T06:49:36.007Z,67.30
2019-03-22T06:52:40.923Z,66.57
2019-03-22T06:55:45.770Z,65.43
2019-03-22T06:58:50.692Z,61.27
2019-03-22T07:01:55.610Z,61.70
2019-03-22T07:05:00.535Z,60.97
2019-03-22T07:08:05.454Z,60.63
2019-03-22T07:11:10.428Z,58.57
2019-03-22T07:14:15.326Z,57.40
2019-03-22T07:17:20.373Z,58.90
2019-03-22T07:20:25.258Z,57.90
2019-03-22T07:23:30.201Z,58.63
2019-03-22T07:26:35.184Z,57.17
2019-03-22T07:29:40.104Z,56.67
2019-03-22T07:32:44.939Z,55.77
2019-03-22T07:35:49.883Z,56.63
2019-03-22T07:38:54.756Z,54.10
2019-03-22T07:42:02.161Z,56.93
2019-03-22T07:45:07.944Z,55.20
2019-03-22T07:48:13.093Z,54.87
2019-03-22T07:51:19.713Z,54.83
2019-03-22T07:54:24.658Z,55.77
2019-03-22T07:57:29.595Z,55.93
2019-03-22T08:00:34.547Z,54.33
2019-03-22T08:03:39.448Z,51.37
2019-03-22T08:06:44.386Z,53.37
2019-03-22T08:09:51.248Z,52.43
2019-03-22T08:12:55.987Z,51.50
2019-03-22T08:16:01.323Z,50.80
2019-03-22T08:19:06.245Z,50.73
2019-03-22T08:22:11.167Z,52.53
2019-03-22T08:25:16.203Z,52.70
2019-03-22T08:28:21.135Z,51.80
2019-03-22T08:31:25.994Z,50.50
2019-03-22T08:34:30.932Z,50.23
2019-03-22T08:37:35.865Z,49.83
2019-03-22T08:40:40.774Z,49.63
2019-03-22T08:43:45.709Z,47.07
2019-03-22T08:46:50.601Z,48.23
2019-03-22T08:49:55.492Z,47.17
2019-03-22T08:53:00.387Z,47.53
2019-03-22T08:56:05.714Z,44.43
2019-03-22T08:59:13.355Z,43.20
2019-03-22T09:02:17.219Z,43.37
2019-03-22T09:05:22.119Z,43.00
2019-03-22T09:08:27.051Z,41.47
2019-03-22T09:11:31.940Z,40.97
2019-03-22T09:14:36.860Z,39.10
2019-03-22T09:17:41.761Z,37.70
2019-03-22T09:20:46.722Z,34.83
2019-03-22T09:23:51.630Z,33.47
2019-03-22T09:26:56.562Z,32.67
2019-03-22T09:30:01.476Z,33.77
2019-03-22T09:33:07.799Z,30.87
2019-03-22T09:36:12.679Z,30.20
2019-03-22T09:39:17.637Z,30.03
2019-03-22T09:42:22.522Z,28.53
2019-03-22T09:45:27.477Z,28.77
2019-03-22T09:48:32.344Z,27.47
2019-03-22T09:51:37.251Z,25.57
2019-03-22T09:54:42.092Z,25.43
2019-03-22T09:57:49.329Z,24.10
2019-03-22T10:00:53.585Z,24.37
2019-03-22T10:03:58.542Z,23.80
2019-03-22T10:07:04.016Z,24.07
2019-03-22T10:10:09.066Z,23.30
2019-03-22T10:13:14.039Z,22.47
2019-03-22T10:16:18.917Z,21.47
2019-03-22T10:19:23.821Z,21.27
2019-03-22T10:22:28.760Z,19.57
2019-03-22T10:25:33.670Z,18.30
2019-03-22T10:28:38.612Z,19.20
2019-03-22T10:31:43.618Z,18.83
2019-03-22T10:34:48.554Z,18.07
2019-03-22T10:38:00.475Z,17.37
2019-03-22T10:41:00.089Z,18.87
2019-03-22T10:44:05.071Z,17.10
2019-03-22T10:47:09.960Z,16.77
2019-03-22T10:50:15.012Z,16.63
2019-03-22T10:53:19.953Z,15.93
2019-03-22T10:56:25.085Z,16.63
2019-03-22T10:59:30.147Z,15.07
2019-03-22T11:02:35.047Z,15.27
2019-03-22T11:05:39.974Z,14.93
2019-03-22T11:08:44.871Z,14.73
2019-03-22T11:11:49.790Z,14.77
2019-03-22T11:14:54.665Z,14.10
2019-03-22T11:17:59.539Z,14.10
2019-03-22T11:21:05.414Z,13.40
2019-03-22T11:24:10.700Z,13.73
2019-03-22T11:27:15.503Z,13.87
2019-03-22T11:30:21.043Z,14.17
2019-03-22T11:33:25.875Z,15.53
2019-03-22T11:36:30.904Z,15.17
2019-03-22T11:39:35.792Z,14.37
2019-03-22T11:42:40.724Z,15.37
2019-03-22T11:45:45.660Z,14.90
2019-03-22T11:48:50.600Z,16.13
2019-03-22T11:51:55.490Z,15.07
2019-03-22T11:55:00.657Z,15.60
2019-03-22T11:58:05.822Z,15.10
2019-03-22T12:01:19.415Z,14.90
2019-03-22T12:04:17.349Z,16.97
2019-03-22T12:07:22.279Z,17.43
2019-03-22T12:10:27.148Z,18.40
2019-03-22T12:13:32.099Z,21.37
2019-03-22T12:16:38.387Z,22.30
2019-03-22T12:19:43.252Z,21.70
2019-03-22T12:22:48.167Z,21.90
2019-03-22T12:25:53.130Z,22.70
2019-03-22T12:28:58.029Z,21.17
2019-03-22T12:32:02.971Z,21.87
2019-03-22T12:35:09.296Z,21.13
2019-03-22T12:38:14.252Z,22.23
2019-03-22T12:41:19.127Z,22.73
2019-03-22T12:44:23.999Z,21.33
2019-03-22T12:47:28.911Z,23.00
2019-03-22T12:50:33.828Z,22.37
2019-03-22T12:53:38.685Z,23.03
2019-03-22T12:56:43.628Z,24.07
2019-03-22T12:59:48.444Z,24.00
2019-03-22T13:02:53.684Z,24.27
2019-03-22T13:05:58.581Z,25.63
2019-03-22T13:09:03.876Z,24.13
2019-03-22T13:12:08.767Z,25.23
2019-03-22T13:15:13.899Z,26.33
2019-03-22T13:18:18.804Z,27.43
2019-03-22T13:21:23.736Z,27.70
2019-03-22T13:24:28.644Z,28.00
2019-03-22T13:27:33.588Z,26.77
2019-03-22T13:30:38.775Z,28.00
2019-03-22T13:33:43.701Z,28.47
2019-03-22T13:36:48.539Z,28.80
2019-03-22T13:39:53.711Z,31.67
2019-03-22T13:42:58.619Z,31.97
2019-03-22T13:46:03.493Z,29.67
2019-03-22T13:49:08.388Z,30.23
2019-03-22T13:52:14.289Z,29.87
2019-03-22T13:55:19.284Z,29.57
2019-03-22T13:58:24.322Z,32.73
2019-03-22T14:01:29.330Z,30.57
2019-03-22T14:04:34.285Z,31.40
2019-03-22T14:07:39.198Z,30.27
2019-03-22T14:10:44.185Z,29.73
2019-03-22T14:13:49.123Z,30.53
2019-03-22T14:16:54.168Z,30.20
2019-03-22T14:19:59.128Z,31.63
2019-03-22T14:23:06.385Z,31.80
2019-03-22T14:26:11.327Z,30.07
2019-03-22T14:29:16.297Z,31.67
2019-03-22T14:32:21.195Z,31.77
2019-03-22T14:35:28.365Z,33.73
2019-03-22T14:38:32.713Z,36.83
2019-03-22T14:41:37.641Z,39.70
2019-03-22T14:44:42.573Z,37.13
2019-03-22T14:47:48.195Z,35.93
2019-03-22T14:50:53.128Z,32.30
2019-03-22T14:53:58.083Z,33.13
2019-03-22T14:57:02.997Z,31.30
2019-03-22T15:00:08.076Z,31.70
2019-03-22T15:03:25.929Z,29.67
2019-03-22T15:06:30.864Z,29.03
2019-03-22T15:09:35.789Z,29.60
2019-03-22T15:12:40.848Z,29.83
2019-03-22T15:16:04.703Z,32.13
2019-03-22T15:19:31.394Z,32.50
2019-03-22T15:23:04.279Z,34.43
2019-03-22T15:26:40.668Z,32.80
2019-03-22T15:30:23.713Z,35.10
2019-03-22T15:33:46.614Z,34.90
2019-03-22T15:37:10.582Z,34.70
2019-03-22T15:40:15.592Z,34.67
2019-03-22T15:43:20.507Z,38.57
2019-03-22T15:46:25.479Z,38.13
2019-03-22T15:49:30.407Z,40.57
2019-03-22T15:52:35.367Z,42.10
2019-03-22T15:55:40.272Z,41.77
2019-03-22T15:58:45.387Z,41.23
2019-03-22T16:01:50.323Z,39.67
2019-03-22T16:04:55.276Z,39.27
2019-03-22T16:08:00.181Z,40.47
2019-03-22T16:11:05.123Z,39.13
2019-03-22T16:14:10.082Z,38.10
2019-03-22T16:17:33.801Z,38.50
2019-03-22T16:20:39.892Z,39.33
2019-03-22T16:23:44.767Z,35.13
2019-03-22T16:26:49.685Z,35.17
2019-03-22T16:29:54.683Z,34.07
2019-03-22T16:32:59.587Z,31.93
2019-03-22T16:36:04.697Z,33.63
2019-03-22T16:39:10.066Z,32.60
2019-03-22T16:42:15.014Z,31.37
2019-03-22T16:45:35.028Z,30.30
2019-03-22T16:48:40.057Z,29.70
2019-03-22T16:51:44.983Z,30.23
2019-03-22T16:54:49.900Z,29.00
2019-03-22T16:57:54.906Z,28.73
2019-03-22T17:00:59.953Z,29.83
2019-03-22T17:04:04.940Z,28.90
2019-03-22T17:07:09.977Z,31.57
2019-03-22T17:10:14.892Z,34.93
2019-03-22T17:13:20.253Z,34.57
2019-03-22T17:16:25.159Z,34.13
2019-03-22T17:19:30.126Z,33.40
2019-03-22T17:22:35.105Z,33.17
2019-03-22T17:25:40.031Z,33.67
2019-03-22T17:28:44.941Z,33.43
2019-03-22T17:31:49.831Z,32.80
2019-03-22T17:34:54.754Z,32.77
2019-03-22T17:37:59.720Z,35.43
2019-03-22T17:41:06.625Z,33.17
2019-03-22T17:44:11.571Z,32.07
2019-03-22T17:47:16.506Z,33.23
2019-03-22T17:50:22.455Z,33.10
2019-03-22T17:53:27.361Z,33.47
2019-03-22T17:56:32.294Z,34.07
2019-03-22T17:59:37.200Z,33.13
2019-03-22T18:02:43.787Z,35.83
2019-03-22T18:05:48.740Z,34.20
2019-03-22T18:08:53.712Z,33.30
2019-03-22T18:11:58.646Z,34.00
2019-03-22T18:15:03.624Z,33.80
2019-03-22T18:18:08.712Z,35.00
2019-03-22T18:21:13.769Z,34.90
2019-03-22T18:24:18.799Z,35.23
2019-03-22T18:27:23.880Z,35.30
2019-03-22T18:30:28.888Z,35.63
2019-03-22T18:33:33.830Z,36.13
2019-03-22T18:36:38.815Z,37.83
2019-03-22T18:39:44.003Z,43.83
2019-03-22T18:42:48.946Z,50.83
2019-03-22T18:45:54.208Z,45.50
2019-03-22T18:48:59.266Z,49.57
2019-03-22T18:52:04.233Z,52.03
2019-03-22T18:55:09.563Z,51.43
2019-03-22T18:58:14.413Z,60.37
2019-03-22T19:01:19.338Z,55.03
2019-03-22T19:04:25.754Z,51.50
2019-03-22T19:07:31.348Z,47.73
2019-03-22T19:10:36.593Z,51.33
2019-03-22T19:13:41.578Z,49.87
2019-03-22T19:16:48.100Z,48.17
2019-03-22T19:19:53.004Z,49.53
2019-03-22T19:22:57.952Z,51.13
2019-03-22T19:26:02.874Z,49.73
2019-03-22T19:29:07.799Z,51.13
2019-03-22T19:32:13.803Z,54.10
2019-03-22T19:35:29.417Z,55.63
2019-03-22T19:38:34.341Z,54.57
2019-03-22T19:41:39.294Z,53.47
2019-03-22T19:44:44.218Z,53.03
2019-03-22T19:47:49.152Z,56.30
2019-03-22T19:50:54.128Z,54.30
2019-03-22T19:53:59.061Z,53.97
2019-03-22T19:57:04.147Z,54.93
2019-03-22T20:00:09.237Z,55.00
2019-03-22T20:03:14.174Z,57.70
2019-03-22T20:06:19.169Z,57.83
2019-03-22T20:09:24.068Z,61.20
2019-03-22T20:12:29.164Z,60.53
2019-03-22T20:15:34.077Z,68.63
2019-03-22T20:18:40.418Z,68.90
2019-03-22T20:21:45.329Z,71.40
2019-03-22T20:24:50.267Z,75.43
2019-03-22T20:27:55.260Z,74.93
2019-03-22T20:31:00.181Z,74.10
2019-03-22T20:34:05.195Z,74.67
2019-03-22T20:37:10.303Z,76.53
2019-03-22T20:40:16.274Z,77.73
2019-03-22T20:43:21.351Z,78.90
2019-03-22T20:46:26.647Z,76.17
2019-03-22T20:49:31.523Z,79.03
2019-03-22T20:52:37.964Z,80.03
2019-03-22T20:55:43.047Z,80.97
2019-03-22T20:58:48.044Z,81.03
2019-03-22T21:01:52.974Z,75.90
2019-03-22T21:04:57.901Z,76.40
2019-03-22T21:08:02.915Z,95.80
2019-03-22T21:11:07.860Z,85.17
2019-03-22T21:14:12.834Z,87.63
2019-03-22T21:17:17.772Z,84.23
2019-03-22T21:20:22.776Z,89.47
2019-03-22T21:23:35.996Z,86.97
2019-03-22T21:26:34.323Z,85.20
2019-03-22T21:29:44.463Z,84.53
2019-03-22T21:32:53.027Z,82.90
2019-03-22T21:36:00.630Z,83.10
2019-03-22T21:39:07.383Z,83.87
2019-03-22T21:42:12.289Z,82.13
2019-03-22T21:45:17.229Z,89.60
2019-03-22T21:48:22.156Z,109.10
2019-03-22T21:51:27.305Z,117.30
2019-03-22T21:54:32.268Z,107.10
2019-03-22T21:57:37.300Z,109.53
2019-03-22T22:00:42.230Z,105.13
2019-03-22T22:03:47.191Z,103.87
2019-03-22T22:06:52.157Z,102.47
2019-03-22T22:09:57.181Z,97.00
2019-03-22T22:13:02.093Z,97.33
2019-03-22T22:16:07.010Z,91.63
2019-03-22T22:19:11.902Z,86.90
2019-03-22T22:22:16.999Z,83.00
2019-03-22T22:25:21.919Z,82.40
2019-03-22T22:28:26.858Z,80.83
2019-03-22T22:31:31.754Z,80.37
2019-03-22T22:34:36.728Z,76.93
2019-03-22T22:37:41.636Z,76.83
2019-03-22T22:40:46.592Z,77.77
2019-03-22T22:43:51.435Z,75.40
2019-03-22T22:46:56.513Z,75.27
2019-03-22T22:50:01.415Z,72.80
2019-03-22T22:53:06.331Z,71.03
2019-03-22T22:56:11.258Z,65.90
2019-03-22T22:59:16.191Z,65.03
2019-03-22T23:02:21.107Z,66.87
2019-03-22T23:05:26.109Z,63.27
2019-03-22T23:08:31.006Z,61.53
2019-03-22T23:11:35.935Z,57.40
2019-03-22T23:14:40.768Z,59.13
2019-03-22T23:17:45.719Z,56.83
2019-03-22T23:20:50.636Z,55.93
2019-03-22T23:23:56.061Z,54.53
2019-03-22T23:27:00.942Z,53.37
2019-03-22T23:30:07.632Z,53.60
2019-03-22T23:33:12.627Z,53.57
2019-03-22T23:36:20.406Z,54.23
2019-03-22T23:39:24.070Z,51.60
2019-03-22T23:42:29.072Z,52.13
2019-03-22T23:45:34.003Z,48.73
2019-03-22T23:48:38.947Z,48.43
2019-03-22T23:51:43.846Z,47.87
2019-03-22T23:54:48.786Z,47.70
2019-03-22T23:57:53.936Z,45.63
